Time;durP1;ratioP1;P1;durP2;ratioP2;P2;SDS_P1;SDS_P2;PMS_P1;PMS_P2;Temp;Humidity;BMP_temperature;BMP_pressure;BME280_temperature;BME280_humidity;BME280_pressure;Samples;Min_cycle;Max_cycle;Signal;HPM_P1;HPM_P2
2024/03/29 00:01:38;;;;;;;7.38;0.80;;;;;;;7.64;73.95;99033.91;5003524;28;20046;-73
2024/03/29 00:04:04;;;;;;;7.60;1.02;;;;;;;7.66;74.05;99026.78;5007304;28;21548;-73
2024/03/29 00:06:29;;;;;;;1.83;0.70;;;;;;;7.64;74.13;99021.81;5003116;28;20044;-73
2024/03/29 00:08:54;;;;;;;3.85;0.90;;;;;;;7.57;74.57;99020.94;5002310;28;20034;-73
2024/03/29 00:11:20;;;;;;;3.80;0.80;;;;;;;7.60;74.35;99016.22;5002495;28;20046;-72
2024/03/29 00:13:45;;;;;;;4.20;0.55;;;;;;;7.57;74.92;99014.00;5018708;28;20026;-73
2024/03/29 00:16:11;;;;;;;3.47;0.63;;;;;;;7.53;75.20;99007.59;5008188;28;20034;-73
2024/03/29 00:18:37;;;;;;;7.32;1.48;;;;;;;7.53;74.97;99006.78;5011334;28;21744;-73
2024/03/29 00:21:03;;;;;;;4.75;0.70;;;;;;;7.45;75.98;98989.63;5007625;28;20604;-72
2024/03/29 00:23:28;;;;;;;6.07;1.30;;;;;;;7.51;75.63;98999.22;5006721;28;20092;-72
2024/03/29 00:25:57;;;;;;;5.15;0.75;;;;;;;7.49;75.97;98995.25;5007109;28;20034;-73
2024/03/29 00:28:23;;;;;;;6.90;0.98;;;;;;;7.46;75.93;99003.31;5007370;28;20072;-73
2024/03/29 00:30:49;;;;;;;5.53;0.98;;;;;;;7.36;76.76;99006.19;5005359;28;20030;-73
2024/03/29 00:33:14;;;;;;;5.88;0.85;;;;;;;7.31;77.37;99022.19;5023752;28;20445;-73
2024/03/29 00:35:39;;;;;;;2.40;0.80;;;;;;;7.30;77.35;99009.47;5024749;28;20501;-73
2024/03/29 00:38:05;;;;;;;4.00;0.80;;;;;;;7.27;77.88;99013.22;5025975;28;20378;-73
2024/03/29 00:40:30;;;;;;;2.83;0.70;;;;;;;7.43;77.45;99019.97;5008003;28;20033;-73
2024/03/29 00:42:56;;;;;;;5.93;0.80;;;;;;;7.29;77.59;99023.34;5009088;28;20034;-73
2024/03/29 00:45:21;;;;;;;5.32;0.80;;;;;;;7.29;78.18;99029.31;5007587;28;20033;-73
2024/03/29 00:47:46;;;;;;;9.52;0.93;;;;;;;7.31;77.51;99023.97;5024468;28;20060;-72
2024/03/29 00:50:12;;;;;;;5.53;0.95;;;;;;;7.37;77.48;99033.59;5022708;28;20030;-73
2024/03/29 00:52:37;;;;;;;3.95;1.75;;;;;;;7.39;77.07;99024.69;5008549;28;20053;-73
2024/03/29 00:55:03;;;;;;;1.85;0.70;;;;;;;7.36;76.99;99019.06;5033978;28;20104;-73
2024/03/29 00:57:29;;;;;;;2.53;0.50;;;;;;;7.34;77.13;99016.66;5021557;28;20034;-73
2024/03/29 00:59:56;;;;;;;5.55;1.67;;;;;;;7.27;78.37;99015.81;5038533;28;20022;-73
2024/03/29 01:02:22;;;;;;;5.40;0.98;;;;;;;7.25;78.29;98994.53;5009528;28;20493;-73
2024/03/29 01:04:48;;;;;;;4.32;0.88;;;;;;;7.31;78.64;98987.84;5009425;28;20036;-73
2024/03/29 01:07:16;;;;;;;2.38;0.60;;;;;;;7.34;78.46;98998.63;5024078;28;20444;-73
2024/03/29 01:09:43;;;;;;;4.82;0.50;;;;;;;7.39;77.45;98995.53;5010299;28;20168;-73
2024/03/29 01:12:09;;;;;;;3.40;0.38;;;;;;;7.39;77.59;99013.56;5038750;28;20132;-73
2024/03/29 01:14:34;;;;;;;5.18;0.93;;;;;;;7.34;78.07;99003.78;5007707;28;20109;-73
2024/03/29 01:17:00;;;;;;;3.33;0.68;;;;;;;7.33;78.42;99017.66;5006139;28;20034;-73
2024/03/29 01:19:26;;;;;;;5.60;0.75;;;;;;;7.40;78.25;99018.56;5023335;28;20490;-73
2024/03/29 01:21:51;;;;;;;5.93;1.02;;;;;;;7.35;78.58;99030.38;5025492;28;20038;-73
2024/03/29 01:24:18;;;;;;;5.32;0.70;;;;;;;7.39;78.31;99029.84;5023339;28;20042;-73
2024/03/29 01:26:44;;;;;;;6.68;1.00;;;;;;;7.49;77.96;99031.34;5006810;28;20046;-73
2024/03/29 01:29:10;;;;;;;1.67;0.70;;;;;;;7.48;78.17;99030.56;5012337;28;20120;-73
2024/03/29 01:31:36;;;;;;;4.60;0.70;;;;;;;7.40;78.61;99018.56;5008237;28;20068;-72
2024/03/29 01:34:02;;;;;;;3.42;0.80;;;;;;;7.48;78.42;99012.50;5008296;28;20030;-73
2024/03/29 01:36:28;;;;;;;5.72;1.48;;;;;;;7.43;79.01;99025.13;5009485;28;20034;-73
2024/03/29 01:38:56;;;;;;;5.10;0.75;;;;;;;7.43;79.11;99027.69;5009270;28;20652;-73
2024/03/29 01:41:23;;;;;;;4.97;0.70;;;;;;;7.45;79.04;99023.16;5022620;28;20034;-73
2024/03/29 01:43:49;;;;;;;1.50;0.60;;;;;;;7.45;78.87;99015.44;5028066;28;20038;-73
2024/03/29 01:46:21;;;;;;;3.67;0.88;;;;;;;7.54;78.42;99006.63;5006807;28;20038;-73
2024/03/29 01:48:47;;;;;;;5.87;0.60;;;;;;;7.50;78.89;99007.97;5022145;28;20034;-73
2024/03/29 01:51:15;;;;;;;4.55;0.70;;;;;;;7.40;79.40;98991.94;5007797;28;20037;-73
2024/03/29 01:53:41;;;;;;;7.78;1.08;;;;;;;7.45;78.53;98989.63;5006045;28;20039;-73
2024/03/29 01:56:08;;;;;;;3.38;1.48;;;;;;;7.52;78.85;98977.63;5009603;28;20112;-73
2024/03/29 01:58:34;;;;;;;6.25;0.65;;;;;;;7.46;79.29;98965.47;5007464;28;20100;-73
2024/03/29 02:01:00;;;;;;;3.97;1.27;;;;;;;7.50;79.21;98966.69;5006050;28;20042;-73
2024/03/29 02:03:27;;;;;;;5.10;0.82;;;;;;;7.45;80.18;98957.91;5022933;28;21292;-73
2024/03/29 02:05:53;;;;;;;3.70;0.90;;;;;;;7.52;79.96;98944.09;5009295;28;20042;-73
2024/03/29 02:08:19;;;;;;;5.80;0.88;;;;;;;7.41;80.65;98939.41;5026787;28;20031;-73
2024/03/29 02:10:47;;;;;;;7.13;0.80;;;;;;;7.46;80.97;98936.28;5006986;28;20045;-73
2024/03/29 02:13:12;;;;;;;5.22;0.77;;;;;;;7.38;80.42;98952.66;5022725;28;20053;-73
2024/03/29 02:15:39;;;;;;;6.22;0.90;;;;;;;7.44;80.89;98951.94;5009075;28;20065;-73
2024/03/29 02:18:06;;;;;;;3.25;1.27;;;;;;;7.34;81.77;98948.84;5021298;28;20042;-73
2024/03/29 02:20:32;;;;;;;5.25;1.05;;;;;;;7.43;82.04;98941.81;5006707;28;20081;-73
2024/03/29 02:23:10;;;;;;;4.72;1.20;;;;;;;7.40;81.86;98945.53;5023193;28;20191;-72
2024/03/29 02:25:36;;;;;;;4.45;0.80;;;;;;;7.38;82.56;98955.22;5022657;28;20123;-73
2024/03/29 02:28:03;;;;;;;6.28;0.80;;;;;;;7.36;81.84;98972.66;5005721;28;20378;-73
2024/03/29 02:30:32;;;;;;;2.30;0.85;;;;;;;7.35;82.96;98958.97;5036379;28;20505;-73
2024/03/29 02:32:58;;;;;;;4.18;0.73;;;;;;;7.44;82.44;98964.03;5004555;28;20037;-73
2024/03/29 02:35:24;;;;;;;3.08;0.80;;;;;;;7.43;81.44;98965.81;5005076;28;20034;-72
2024/03/29 02:37:50;;;;;;;7.13;0.80;;;;;;;7.35;81.67;98984.75;5002782;28;20692;-73
2024/03/29 02:40:16;;;;;;;5.55;1.38;;;;;;;7.40;82.31;98973.91;5022831;28;20034;-73
2024/03/29 02:42:41;;;;;;;1.77;0.60;;;;;;;7.60;80.29;98968.97;4990831;28;20038;-73
2024/03/29 02:45:08;;;;;;;8.55;1.13;;;;;;;7.70;80.06;98976.44;5002484;28;20022;-73
2024/03/29 02:47:33;;;;;;;5.85;0.68;;;;;;;7.67;80.17;98980.19;5004108;28;20088;-73
2024/03/29 02:49:58;;;;;;;1.35;0.50;;;;;;;7.89;79.13;98987.94;5015039;28;21199;-73
2024/03/29 02:52:24;;;;;;;0.95;0.47;;;;;;;7.89;78.53;98993.09;5002578;28;20034;-73
2024/03/29 02:54:49;;;;;;;2.58;0.70;;;;;;;8.05;78.02;98987.72;5007232;28;20030;-73
2024/03/29 02:57:15;;;;;;;4.28;0.75;;;;;;;7.97;80.39;98980.13;5003643;28;20511;-73
2024/03/29 02:59:41;;;;;;;2.67;0.60;;;;;;;7.87;81.01;98977.00;5007534;28;20428;-73
2024/03/29 03:02:06;;;;;;;5.85;1.02;;;;;;;7.79;82.31;98967.59;5006544;28;20129;-72
2024/03/29 03:04:32;;;;;;;2.03;0.60;;;;;;;7.72;82.49;98959.81;5003660;28;20393;-73
2024/03/29 03:10:55;;;;;;;4.38;1.10;;;;;;;7.63;82.49;98954.91;5022004;28;20038;-73
2024/03/29 03:12:29;;;;;;;3.10;1.10;;;;;;;7.73;81.90;98960.59;5005824;28;20715;-73
2024/03/29 03:14:54;;;;;;;6.95;1.30;;;;;;;7.66;81.64;98954.56;5007983;28;20137;-73
2024/03/29 03:17:20;;;;;;;4.13;1.15;;;;;;;7.64;81.50;98956.53;5001400;28;20041;-73
2024/03/29 03:19:45;;;;;;;10.07;1.13;;;;;;;7.74;80.71;98965.59;5006195;28;20026;-73
2024/03/29 03:22:11;;;;;;;6.75;1.55;;;;;;;7.77;80.75;98964.41;5023927;28;20033;-73
2024/03/29 03:24:36;;;;;;;6.18;0.98;;;;;;;7.73;81.10;98963.97;5022860;28;20034;-73
2024/03/29 03:27:02;;;;;;;5.07;0.90;;;;;;;7.67;80.57;98945.84;5004180;28;20038;-73
2024/03/29 03:29:27;;;;;;;4.95;0.77;;;;;;;7.69;80.60;98949.84;5018954;28;20037;-73
2024/03/29 03:31:53;;;;;;;5.32;1.08;;;;;;;7.63;81.15;98948.00;5005194;28;20080;-73
2024/03/29 03:34:18;;;;;;;4.13;0.75;;;;;;;7.58;81.85;98956.25;5004745;28;20401;-73
2024/03/29 03:36:43;;;;;;;5.40;0.88;;;;;;;7.60;80.55;98956.09;5005706;28;20493;-73
2024/03/29 03:39:09;;;;;;;4.03;1.00;;;;;;;7.68;79.70;98939.69;5008600;28;20864;-73
2024/03/29 03:41:34;;;;;;;11.82;1.70;;;;;;;7.66;80.13;98941.66;5003649;28;20034;-72
2024/03/29 03:44:00;;;;;;;1.85;0.70;;;;;;;7.79;78.65;98936.63;5007429;28;20492;-73
2024/03/29 03:46:26;;;;;;;4.57;0.60;;;;;;;7.66;79.56;98937.28;5006263;28;20501;-73
2024/03/29 03:48:51;;;;;;;3.33;0.80;;;;;;;7.59;80.12;98928.69;5019575;28;20053;-73
2024/03/29 03:51:16;;;;;;;3.95;0.73;;;;;;;7.61;80.85;98937.06;5024146;28;20039;-73
2024/03/29 03:53:42;;;;;;;7.38;1.58;;;;;;;7.57;81.48;98931.47;5012714;28;20075;-73
2024/03/29 03:56:07;;;;;;;5.53;0.68;;;;;;;7.54;82.22;98951.66;5012866;28;20050;-73
2024/03/29 03:58:33;;;;;;;4.25;0.50;;;;;;;7.52;82.76;98954.41;5012804;28;20018;-73
2024/03/29 04:01:04;;;;;;;6.63;0.60;;;;;;;7.57;82.80;98953.84;5009907;28;20041;-73
2024/03/29 04:03:29;;;;;;;4.60;0.60;;;;;;;7.56;82.70;98949.69;5026736;28;20030;-73
2024/03/29 04:05:55;;;;;;;1.38;0.50;;;;;;;7.55;83.70;98955.81;5011444;28;20492;-72
2024/03/29 04:08:20;;;;;;;5.18;0.70;;;;;;;7.55;84.50;98956.66;5014193;28;20037;-73
2024/03/29 04:10:46;;;;;;;4.70;0.80;;;;;;;7.63;85.71;98957.50;5011409;28;20476;-73
2024/03/29 04:13:11;;;;;;;2.80;0.70;;;;;;;7.63;86.38;98952.34;5010580;28;20038;-73
2024/03/29 04:15:37;;;;;;;2.97;0.70;;;;;;;7.54;87.28;98949.09;5011347;28;20082;-73
2024/03/29 04:18:02;;;;;;;5.38;0.55;;;;;;;7.60;87.34;98948.34;5012039;28;20022;-73
2024/03/29 04:20:28;;;;;;;4.50;0.70;;;;;;;7.54;87.33;98955.03;5030534;28;20033;-73
2024/03/29 04:22:53;;;;;;;2.85;0.47;;;;;;;7.60;87.09;98968.97;5028331;28;20033;-72
2024/03/29 04:25:18;;;;;;;12.10;0.65;;;;;;;7.57;87.29;98985.63;5012605;28;20029;-73
2024/03/29 04:27:44;;;;;;;3.75;0.68;;;;;;;7.55;88.41;98982.44;5027425;28;20033;-72
2024/03/29 04:30:10;;;;;;;5.15;0.50;;;;;;;7.55;89.48;98972.13;5005439;28;20090;-74
2024/03/29 04:32:35;;;;;;;2.60;0.65;;;;;;;7.51;90.85;98960.53;5008822;28;20056;-74
2024/03/29 04:35:00;;;;;;;2.95;0.85;;;;;;;7.51;92.66;98970.06;5012738;28;20034;-74
2024/03/29 04:37:26;;;;;;;2.03;0.60;;;;;;;7.44;94.19;98970.00;5011063;28;20038;-73
2024/03/29 04:39:51;;;;;;;4.05;0.60;;;;;;;7.46;95.74;98962.88;5011866;28;20037;-74
2024/03/29 04:42:17;;;;;;;6.38;0.70;;;;;;;7.51;96.68;98965.69;5015313;28;20049;-74
2024/03/29 04:44:42;;;;;;;2.60;0.70;;;;;;;7.51;96.86;98968.28;5008833;28;20090;-74
2024/03/29 04:47:08;;;;;;;3.60;0.75;;;;;;;7.47;96.63;98968.84;5028145;28;20045;-74
2024/03/29 04:49:35;;;;;;;3.30;0.90;;;;;;;7.49;94.24;98964.28;5010646;28;20034;-73
2024/03/29 04:52:00;;;;;;;5.45;1.10;;;;;;;7.44;94.38;98962.25;5013940;28;20033;-73
2024/03/29 04:54:26;;;;;;;3.83;0.88;;;;;;;7.34;94.45;98965.09;5009871;28;20037;-73
2024/03/29 04:56:53;;;;;;;8.27;1.23;;;;;;;7.42;93.48;98956.47;5030360;28;20138;-73
2024/03/29 04:59:20;;;;;;;2.53;0.70;;;;;;;7.42;92.96;98959.03;5026721;28;20065;-73
2024/03/29 05:01:53;;;;;;;2.63;1.02;;;;;;;7.37;92.59;98938.97;5027254;28;20045;-74
2024/03/29 05:04:25;;;;;;;7.32;1.63;;;;;;;7.31;94.21;98938.88;5027160;28;20068;-73
2024/03/29 05:06:54;;;;;;;2.03;0.90;;;;;;;7.28;93.55;98939.25;5008970;28;20112;-73
2024/03/29 05:09:21;;;;;;;5.75;1.05;;;;;;;7.22;93.19;98951.06;5025093;28;20044;-73
2024/03/29 05:11:47;;;;;;;3.55;0.90;;;;;;;7.31;92.51;98949.19;5006378;28;20535;-73
2024/03/29 05:14:19;;;;;;;5.25;1.30;;;;;;;7.18;93.01;98952.41;5011502;28;20117;-73
2024/03/29 05:16:45;;;;;;;7.40;1.27;;;;;;;7.28;93.13;98950.34;5007935;28;20052;-73
2024/03/29 05:19:12;;;;;;;6.63;1.35;;;;;;;7.24;92.23;98953.47;5025263;28;20444;-73
2024/03/29 05:21:38;;;;;;;5.03;0.82;;;;;;;7.17;93.11;98937.91;5023382;28;20121;-73
2024/03/29 05:24:03;;;;;;;4.45;0.95;;;;;;;7.10;93.87;98934.44;4991074;28;20048;-73
2024/03/29 05:26:29;;;;;;;6.20;0.90;;;;;;;7.16;94.65;98931.97;5022714;28;20438;-73
2024/03/29 05:28:57;;;;;;;11.48;1.65;;;;;;;7.14;94.57;98939.09;5009444;28;20496;-73
2024/03/29 05:31:24;;;;;;;2.03;0.82;;;;;;;7.11;95.27;98954.09;5008184;28;20133;-73
2024/03/29 05:33:49;;;;;;;7.30;1.30;;;;;;;7.10;95.45;98960.22;5007739;28;20038;-71
2024/03/29 05:36:14;;;;;;;4.82;1.05;;;;;;;7.05;95.20;98949.66;5021727;28;20398;-73
2024/03/29 05:38:40;;;;;;;7.95;2.30;;;;;;;7.06;94.83;98935.78;5005227;28;20031;-73
2024/03/29 05:41:06;;;;;;;14.27;1.40;;;;;;;7.10;95.61;98921.56;5025611;28;20093;-73
2024/03/29 05:43:31;;;;;;;2.47;1.00;;;;;;;7.23;94.60;98903.69;5010787;28;20396;-72
2024/03/29 05:45:57;;;;;;;9.27;1.13;;;;;;;7.19;94.95;98920.50;5006586;28;20041;-73
2024/03/29 05:48:23;;;;;;;5.65;1.05;;;;;;;7.05;94.74;98927.25;5010038;28;20045;-73
2024/03/29 05:50:49;;;;;;;6.70;1.10;;;;;;;7.04;95.90;98915.34;5008371;28;20041;-73
2024/03/29 05:53:14;;;;;;;5.28;1.20;;;;;;;7.07;94.99;98927.09;5009118;28;20056;-73
2024/03/29 05:55:39;;;;;;;3.83;1.05;;;;;;;7.04;95.32;98924.84;5005943;28;20077;-73
2024/03/29 05:58:06;;;;;;;2.30;1.10;;;;;;;7.02;95.79;98920.66;5005381;28;20625;-73
2024/03/29 06:00:34;;;;;;;1.65;0.93;;;;;;;7.15;95.44;98914.09;5019582;28;20037;-72
2024/03/29 06:03:02;;;;;;;9.85;1.30;;;;;;;7.11;96.58;98913.66;5022998;28;20547;-73
2024/03/29 06:05:28;;;;;;;5.95;0.95;;;;;;;7.19;95.87;98908.38;5035618;28;20065;-73
2024/03/29 06:07:53;;;;;;;2.78;0.90;;;;;;;7.29;94.65;98902.16;5024608;28;20076;-73
2024/03/29 06:10:19;;;;;;;8.20;1.30;;;;;;;7.16;95.24;98919.06;5032361;28;20030;-73
2024/03/29 06:12:44;;;;;;;4.57;1.20;;;;;;;7.07;96.64;98922.72;5005894;28;20041;-72
2024/03/29 06:17:54;;;;;;;3.80;1.15;;;;;;;7.16;96.89;98921.66;4988210;28;20038;-73
2024/03/29 06:20:19;;;;;;;2.13;0.95;;;;;;;7.13;97.99;98921.22;5004852;28;20386;-73
2024/03/29 06:22:45;;;;;;;4.70;1.30;;;;;;;7.16;98.30;98931.19;5005670;28;20690;-73
2024/03/29 06:25:11;;;;;;;5.70;1.02;;;;;;;7.13;99.03;98940.03;5008045;28;20077;-73
2024/03/29 06:27:37;;;;;;;6.10;1.23;;;;;;;7.11;98.75;98942.00;5006305;28;20100;-74
2024/03/29 06:30:04;;;;;;;3.50;1.20;;;;;;;7.08;99.37;98942.34;5006670;28;20500;-73
2024/03/29 06:32:33;;;;;;;3.60;1.13;;;;;;;7.17;100.00;98936.13;5006930;28;20037;-73
2024/03/29 06:34:59;;;;;;;6.18;1.38;;;;;;;7.13;100.00;98931.53;5007312;28;20032;-73
2024/03/29 06:37:26;;;;;;;4.05;1.20;;;;;;;7.21;99.80;98932.25;5021475;28;20053;-72
2024/03/29 06:39:52;;;;;;;4.82;1.63;;;;;;;7.17;100.00;98943.88;5008433;28;20037;-73
2024/03/29 06:42:17;;;;;;;10.02;1.10;;;;;;;7.20;100.00;98938.38;5020062;28;20100;-73
2024/03/29 06:44:43;;;;;;;7.57;1.55;;;;;;;7.29;100.00;98941.66;5006038;28;20125;-73
2024/03/29 06:47:09;;;;;;;7.70;2.00;;;;;;;7.34;100.00;98929.00;4986313;28;20382;-73
2024/03/29 06:49:35;;;;;;;4.00;1.25;;;;;;;7.26;100.00;98934.25;5007051;28;20065;-73
2024/03/29 06:52:01;;;;;;;5.20;1.65;;;;;;;7.31;100.00;98931.13;5022135;28;20038;-73
2024/03/29 06:54:27;;;;;;;7.22;1.20;;;;;;;7.24;100.00;98932.84;5005091;28;20469;-73
2024/03/29 06:56:54;;;;;;;2.70;1.13;;;;;;;7.28;100.00;98934.09;5004736;28;20040;-73
2024/03/29 06:59:20;;;;;;;4.93;1.42;;;;;;;7.35;100.00;98945.28;5007521;28;20693;-73
2024/03/29 07:01:47;;;;;;;4.95;1.17;;;;;;;7.42;100.00;98941.00;5021902;28;20030;-73
2024/03/29 07:04:13;;;;;;;8.45;1.60;;;;;;;7.48;100.00;98950.59;5022849;28;20034;-73
2024/03/29 07:06:39;;;;;;;5.88;1.65;;;;;;;7.47;100.00;98943.84;5003217;28;20044;-73
2024/03/29 07:09:06;;;;;;;5.25;1.58;;;;;;;7.53;100.00;98940.53;5004733;28;20089;-72
2024/03/29 07:11:31;;;;;;;5.75;1.40;;;;;;;7.48;100.00;98939.47;5002583;28;20067;-73
2024/03/29 07:13:57;;;;;;;5.95;1.48;;;;;;;7.54;100.00;98949.88;5022470;28;20084;-73
2024/03/29 07:16:22;;;;;;;6.03;1.48;;;;;;;7.57;100.00;98946.94;5005604;28;20040;-73
2024/03/29 07:18:47;;;;;;;4.75;1.40;;;;;;;7.52;100.00;98943.31;5020478;28;20062;-73
2024/03/29 07:21:13;;;;;;;6.43;1.35;;;;;;;7.49;100.00;98944.44;5010401;28;20577;-73
2024/03/29 07:23:38;;;;;;;8.00;1.35;;;;;;;7.45;100.00;98952.75;5006178;28;20565;-73
2024/03/29 07:26:05;;;;;;;2.65;1.08;;;;;;;7.43;100.00;98955.50;5004398;28;20042;-72
2024/03/29 07:28:31;;;;;;;3.63;1.25;;;;;;;7.44;100.00;98962.25;5023407;28;20041;-73
2024/03/29 07:30:57;;;;;;;6.55;1.27;;;;;;;7.44;100.00;98974.34;5020356;28;20040;-72
2024/03/29 07:33:26;;;;;;;4.80;1.25;;;;;;;7.47;100.00;98974.78;5022145;28;20033;-73
2024/03/29 07:35:55;;;;;;;2.70;1.77;;;;;;;7.54;100.00;98977.44;5017433;28;20038;-73
2024/03/29 07:38:23;;;;;;;5.30;1.27;;;;;;;7.63;100.00;98983.28;5005531;28;20520;-73
2024/03/29 07:40:49;;;;;;;6.35;1.70;;;;;;;7.64;100.00;98990.84;5006405;28;20116;-73
2024/03/29 07:43:14;;;;;;;3.20;1.48;;;;;;;7.64;100.00;98996.00;5004490;28;20120;-73
2024/03/29 07:45:45;;;;;;;5.30;1.40;;;;;;;7.64;100.00;99002.97;5004988;28;20034;-73
2024/03/29 07:48:16;;;;;;;3.45;1.58;;;;;;;7.69;100.00;98998.84;5002968;28;20113;-73
2024/03/29 07:50:42;;;;;;;6.13;2.25;;;;;;;7.71;100.00;98996.91;5002360;28;20095;-73
2024/03/29 07:53:08;;;;;;;5.53;1.83;;;;;;;7.75;100.00;98987.81;5005466;28;20026;-73
2024/03/29 07:55:35;;;;;;;4.53;1.48;;;;;;;7.84;100.00;98996.25;5022721;28;20041;-72
2024/03/29 07:58:01;;;;;;;6.05;1.90;;;;;;;7.87;100.00;98993.28;5004505;28;20025;-73
2024/03/29 08:00:26;;;;;;;8.13;1.25;;;;;;;8.05;100.00;98994.69;5034460;28;20041;-73
2024/03/29 08:02:53;;;;;;;3.45;1.25;;;;;;;8.09;100.00;98994.13;5003055;28;20036;-73
2024/03/29 08:05:20;;;;;;;7.22;1.50;;;;;;;8.07;100.00;98990.94;5028860;28;20113;-73
2024/03/29 08:07:45;;;;;;;7.15;2.45;;;;;;;8.19;100.00;98992.06;5017597;28;20042;-73
2024/03/29 08:10:11;;;;;;;9.68;1.80;;;;;;;8.30;100.00;99001.06;5017476;28;20037;-73
2024/03/29 08:12:37;;;;;;;2.80;1.33;;;;;;;8.40;100.00;98990.44;5004479;28;20114;-73
2024/03/29 08:15:03;;;;;;;2.40;1.38;;;;;;;8.48;100.00;98986.97;5022874;28;20037;-73
2024/03/29 08:17:29;;;;;;;5.35;1.80;;;;;;;8.42;100.00;98987.69;5002204;28;20046;-74
2024/03/29 08:19:54;;;;;;;10.05;5.05;;;;;;;8.44;100.00;98993.47;5005363;28;20038;-74
2024/03/29 08:22:20;;;;;;;3.90;1.77;;;;;;;8.56;100.00;98985.03;5004836;28;20038;-74
2024/03/29 08:24:46;;;;;;;11.13;1.55;;;;;;;8.52;100.00;98985.59;5020939;28;20033;-74
2024/03/29 08:27:11;;;;;;;7.15;3.90;;;;;;;8.47;100.00;98993.09;5021492;28;20049;-74
2024/03/29 08:29:37;;;;;;;5.18;1.67;;;;;;;8.60;100.00;99005.34;5017747;28;20038;-73
2024/03/29 08:32:03;;;;;;;3.88;1.30;;;;;;;8.62;100.00;98999.00;5019707;28;20673;-73
2024/03/29 08:34:34;;;;;;;5.75;1.67;;;;;;;8.76;100.00;99000.69;5004087;28;20405;-73
2024/03/29 08:37:01;;;;;;;3.72;1.50;;;;;;;8.73;100.00;99001.06;5006827;28;20045;-74
2024/03/29 08:39:27;;;;;;;3.95;1.80;;;;;;;8.72;100.00;99004.66;5012194;28;20053;-74
2024/03/29 08:41:52;;;;;;;5.47;2.28;;;;;;;8.66;100.00;99015.72;5008288;28;20497;-73
2024/03/29 08:44:18;;;;;;;15.60;7.28;;;;;;;8.74;100.00;99010.44;5026683;28;20926;-74
2024/03/29 08:46:43;;;;;;;4.35;1.85;;;;;;;8.88;100.00;99005.34;5007531;28;20421;-72
2024/03/29 08:49:09;;;;;;;6.35;2.45;;;;;;;8.96;100.00;99008.56;5008524;28;20042;-73
2024/03/29 08:51:34;;;;;;;17.33;8.35;;;;;;;9.14;100.00;99023.63;5009025;28;20048;-74
2024/03/29 08:54:04;;;;;;;8.13;4.07;;;;;;;9.28;100.00;99014.13;5024096;28;20038;-73
2024/03/29 08:56:30;;;;;;;16.50;7.20;;;;;;;9.36;100.00;99013.19;5021566;28;20038;-73
2024/03/29 08:58:55;;;;;;;15.30;5.90;;;;;;;9.46;100.00;99000.72;5008276;28;20040;-72
2024/03/29 09:01:20;;;;;;;9.77;4.32;;;;;;;9.46;100.00;99000.72;5005345;28;20045;-73
2024/03/29 09:03:46;;;;;;;9.20;2.95;;;;;;;9.64;100.00;99007.16;5024226;28;20603;-73
2024/03/29 09:06:11;;;;;;;3.28;1.33;;;;;;;9.99;100.00;99000.09;5005516;28;20417;-73
2024/03/29 09:08:37;;;;;;;5.68;1.58;;;;;;;10.05;100.00;99001.09;5008814;28;20026;-73
2024/03/29 09:11:03;;;;;;;10.10;2.22;;;;;;;10.21;100.00;98989.56;5022856;28;20455;-74
2024/03/29 09:13:30;;;;;;;4.50;1.58;;;;;;;10.20;100.00;99001.72;5025553;28;20041;-73
2024/03/29 09:15:55;;;;;;;4.80;2.72;;;;;;;10.25;100.00;99009.72;5008484;28;20038;-72
2024/03/29 09:18:26;;;;;;;4.15;1.33;;;;;;;10.41;100.00;99005.97;5023917;28;20044;-74
2024/03/29 09:21:00;;;;;;;7.30;2.30;;;;;;;10.47;100.00;99000.00;5007964;28;20042;-73
2024/03/29 09:23:28;;;;;;;3.35;2.05;;;;;;;10.51;100.00;99011.56;5033377;28;20113;-74
2024/03/29 09:25:55;;;;;;;20.80;9.25;;;;;;;10.61;100.00;99021.53;5010755;28;20041;-74
2024/03/29 09:28:21;;;;;;;9.27;3.60;;;;;;;10.79;100.00;99017.53;5025051;28;20090;-73
2024/03/29 09:30:47;;;;;;;7.78;2.50;;;;;;;10.97;100.00;99020.31;5020629;28;20120;-73
2024/03/29 09:33:13;;;;;;;5.85;1.55;;;;;;;11.00;100.00;99019.91;5010257;28;20038;-73
2024/03/29 09:35:38;;;;;;;3.38;1.00;;;;;;;11.04;100.00;99018.50;5006405;28;20057;-73
2024/03/29 09:38:04;;;;;;;4.30;0.98;;;;;;;11.07;100.00;99020.69;5027149;28;20038;-73
2024/03/29 09:40:30;;;;;;;2.97;1.00;;;;;;;11.15;100.00;99022.28;5020804;28;20029;-74
2024/03/29 09:43:02;;;;;;;5.80;1.00;;;;;;;11.24;100.00;99020.25;5007615;28;20108;-72
2024/03/29 09:45:37;;;;;;;5.13;1.25;;;;;;;11.37;100.00;99009.06;5025201;28;20041;-73
2024/03/29 09:48:08;;;;;;;4.28;0.90;;;;;;;11.44;100.00;99010.63;5008252;28;20535;-74
2024/03/29 09:50:35;;;;;;;3.08;0.93;;;;;;;11.62;100.00;99014.34;5004655;28;20500;-73
2024/03/29 09:53:02;;;;;;;1.27;0.80;;;;;;;11.78;100.00;99029.47;5024506;28;20117;-74
2024/03/29 09:55:28;;;;;;;5.05;1.00;;;;;;;11.70;100.00;99034.91;5023690;28;20452;-74
2024/03/29 09:57:54;;;;;;;3.22;1.13;;;;;;;11.64;100.00;99044.31;5005973;28;20026;-74
2024/03/29 10:00:20;;;;;;;4.80;1.00;;;;;;;11.61;100.00;99038.72;5024934;28;20044;-73
2024/03/29 10:02:49;;;;;;;3.13;1.00;;;;;;;11.65;100.00;99048.50;5012984;28;20021;-74
2024/03/29 10:05:15;;;;;;;3.67;1.05;;;;;;;11.69;100.00;99060.06;5022404;28;20034;-73
2024/03/29 10:07:42;;;;;;;1.98;0.90;;;;;;;11.47;100.00;99058.72;5004796;28;20081;-74
2024/03/29 10:10:11;;;;;;;1.85;0.85;;;;;;;11.37;100.00;99063.56;5005430;28;20140;-74
2024/03/29 10:12:37;;;;;;;2.00;0.90;;;;;;;11.33;100.00;99065.75;5022161;28;20117;-73
2024/03/29 10:15:18;;;;;;;3.05;0.93;;;;;;;11.37;100.00;99056.56;5007101;28;20168;-73
2024/03/29 10:17:48;;;;;;;4.93;1.20;;;;;;;11.42;100.00;99058.56;5022272;28;20489;-74
2024/03/29 10:20:17;;;;;;;3.40;1.00;;;;;;;11.49;100.00;99067.13;5023795;28;20064;-74
2024/03/29 10:22:43;;;;;;;2.28;0.90;;;;;;;11.75;100.00;99062.84;5027263;28;20044;-74
2024/03/29 10:25:10;;;;;;;6.05;1.42;;;;;;;11.85;100.00;99068.41;5009245;28;20033;-73
2024/03/29 10:27:36;;;;;;;3.22;1.48;;;;;;;11.73;100.00;99054.47;5006908;28;20030;-74
2024/03/29 10:30:03;;;;;;;2.10;1.00;;;;;;;11.86;100.00;99059.59;5021049;28;20080;-73
2024/03/29 10:32:29;;;;;;;2.45;0.70;;;;;;;12.03;99.45;99060.75;5022417;28;20061;-74
2024/03/29 10:34:55;;;;;;;3.40;1.20;;;;;;;12.05;97.35;99056.16;5007835;28;20038;-73
2024/03/29 10:37:29;;;;;;;2.13;1.50;;;;;;;12.27;98.18;99043.63;5005537;28;20037;-74
2024/03/29 10:39:56;;;;;;;3.50;0.98;;;;;;;12.71;96.76;99051.50;5008241;28;20028;-73
2024/03/29 10:42:25;;;;;;;1.63;0.70;;;;;;;13.07;91.18;99047.41;5006564;28;20461;-73
2024/03/29 10:44:51;;;;;;;2.72;0.60;;;;;;;13.30;88.38;99036.44;5008277;28;20635;-74
2024/03/29 10:47:20;;;;;;;4.45;1.67;;;;;;;13.56;88.58;99043.16;5019584;28;20042;-74
2024/03/29 10:49:50;;;;;;;4.88;0.60;;;;;;;13.61;85.06;99038.06;4985949;28;20042;-74
2024/03/29 10:52:20;;;;;;;1.50;0.63;;;;;;;13.62;85.39;99055.28;5020601;28;20030;-74
2024/03/29 10:54:47;;;;;;;1.73;0.57;;;;;;;13.67;82.41;99044.22;5003527;28;20506;-74
2024/03/29 10:57:36;;;;;;;3.20;0.68;;;;;;;13.56;83.17;99044.94;5005019;28;20116;-73
2024/03/29 11:00:20;;;;;;;0.95;0.50;;;;;;;13.42;83.44;99042.47;5034436;28;20029;-73
2024/03/29 11:03:05;;;;;;;4.68;0.70;;;;;;;13.42;83.87;99039.88;5020638;28;20092;-73
2024/03/29 11:05:32;;;;;;;1.58;0.52;;;;;;;13.30;83.45;99035.56;5022120;28;20058;-74
2024/03/29 11:08:01;;;;;;;1.67;0.60;;;;;;;13.30;84.00;99051.19;5008299;28;20072;-73
2024/03/29 11:10:35;;;;;;;1.48;0.43;;;;;;;13.36;83.34;99042.56;5004843;28;20404;-74
2024/03/29 11:13:20;;;;;;;2.10;0.50;;;;;;;13.31;84.50;99045.81;5021714;28;20033;-74
2024/03/29 11:15:47;;;;;;;6.78;2.42;;;;;;;13.56;82.76;99060.56;4989307;28;20042;-73
2024/03/29 11:18:16;;;;;;;2.03;0.57;;;;;;;13.41;81.21;99066.13;5021028;28;20068;-74
2024/03/29 11:20:46;;;;;;;4.68;1.40;;;;;;;13.53;80.28;99071.44;5021934;28;20054;-73
2024/03/29 11:23:14;;;;;;;2.45;1.00;;;;;;;13.44;80.68;99063.88;5012074;28;20485;-73
2024/03/29 11:25:51;;;;;;;3.55;0.80;;;;;;;13.61;81.79;99071.13;5005945;28;20030;-73
2024/03/29 11:28:43;;;;;;;3.25;0.80;;;;;;;13.78;79.85;99059.09;5021016;28;20045;-73
2024/03/29 11:31:09;;;;;;;4.18;1.58;;;;;;;13.96;79.38;99055.69;5021450;28;20038;-74
2024/03/29 11:33:48;;;;;;;5.57;1.60;;;;;;;13.98;79.41;99047.66;5006040;28;20540;-74
2024/03/29 11:36:17;;;;;;;3.97;1.25;;;;;;;13.99;79.04;99031.00;5020604;28;20037;-74
2024/03/29 11:38:45;;;;;;;5.55;1.75;;;;;;;13.98;78.43;99039.84;5007115;28;20033;-73
2024/03/29 11:41:16;;;;;;;7.35;2.38;;;;;;;14.00;75.16;99053.44;5004921;28;20061;-75